METAR Data
IDs: Format: Raw Decoded Include TAF

Data at: 1436 UTC 10 Aug 2022

KVCV 101410Z AUTO 18006KT 10SM CLR 24/06 A3012 RMK AO2
KVCV 101350Z AUTO 20004KT 10SM CLR 23/06 A3012 RMK AO2
KVCV 101330Z AUTO VRB03KT 10SM CLR 23/06 A3012 RMK AO2
KVCV 101310Z AUTO 12008KT 10SM CLR 24/06 A3010 RMK AO2
KVCV 101250Z AUTO 12006KT 10SM CLR 24/06 A3010 RMK AO2
KVCV 101230Z AUTO 12005KT 10SM CLR 24/06 A3009 RMK AO2
KVCV 101210Z AUTO 00000KT 10SM CLR 23/07 A3010 RMK AO2
KVCV 101150Z AUTO 17006KT 10SM CLR 24/07 A3010 RMK AO2
KVCV 101130Z AUTO 17004KT 10SM CLR 24/06 A3009 RMK AO2
KVCV 101110Z AUTO 17005KT 10SM CLR 24/06 A3010 RMK AO2
KVCV 101050Z AUTO 18009KT 10SM CLR 24/06 A3010 RMK AO2
KVCV 101030Z AUTO 22007KT 10SM CLR 24/07 A3010 RMK AO2
KVCV 101010Z AUTO 21008KT 10SM CLR 24/07 A3010 RMK AO2
KVCV 100950Z AUTO 20008KT 10SM CLR 25/08 A3010 RMK AO2
KVCV 100930Z AUTO 19010KT 10SM CLR 25/08 A3010 RMK AO2
KVCV 100910Z AUTO 21007KT 10SM CLR 24/08 A3010 RMK AO2
KVCV 100850Z AUTO 16006KT 10SM CLR 25/08 A3009 RMK AO2
KVCV 100830Z AUTO 12005KT 10SM CLR 25/08 A3009 RMK AO2
KVCV 100810Z AUTO 00000KT 10SM CLR 26/09 A3010 RMK AO2
KVCV 100750Z AUTO 00000KT 10SM CLR 26/09 A3009 RMK AO2
KVCV 100730Z AUTO 25008KT 10SM CLR 26/09 A3009 RMK AO2
KVCV 100710Z AUTO 23008KT 10SM CLR 27/09 A3009 RMK AO2
KVCV 100650Z AUTO 20010KT 10SM CLR 27/10 A3010 RMK AO2
KVCV 100630Z AUTO 18008KT 10SM CLR 27/10 A3010 RMK AO2
KVCV 100610Z AUTO 18011KT 10SM CLR 27/10 A3010 RMK AO2
KVCV 100550Z AUTO 17012KT 10SM CLR 28/10 A3009 RMK AO2
KVCV 100530Z AUTO 15014KT 10SM CLR 28/09 A3009 RMK AO2
KVCV 100510Z AUTO 16004KT 10SM CLR 28/07 A3009 RMK AO2
KVCV 100450Z AUTO 16008KT 10SM CLR 29/07 A3008 RMK AO2
KVCV 100430Z AUTO 19005KT 10SM CLR 29/08 A3007 RMK AO2
KVCV 100410Z AUTO 29005KT 10SM CLR 30/08 A3006 RMK AO2 LTG DSNT N AND NE
KVCV 100350Z AUTO 17010G17KT 10SM CLR 30/08 A3005 RMK AO2
KVCV 100330Z AUTO 18009G17KT 10SM CLR 30/08 A3004 RMK AO2
KVCV 100310Z AUTO 17013G22KT 10SM CLR 30/08 A3003 RMK AO2
KVCV 100250Z AUTO 16010G16KT 10SM CLR 31/08 A3002 RMK AO2
KVCV 100230Z AUTO 17015G22KT 10SM CLR 32/09 A3001 RMK AO2
KVCV 100210Z AUTO 17018G24KT 10SM CLR 32/08 A3000 RMK AO2
KVCV 100150Z AUTO 17020KT 9SM CLR 33/08 A2999 RMK AO2
KVCV 100130Z AUTO 17023KT 10SM CLR 33/08 A2998 RMK AO2
KVCV 100110Z AUTO 17026KT 10SM FEW120 34/08 A2997 RMK AO2
KVCV 100050Z AUTO 17022KT 10SM FEW120 35/08 A2997 RMK AO2
KVCV 100030Z AUTO 17020G27KT 10SM CLR 34/09 A2997 RMK AO2
KVCV 100010Z AUTO 17023KT 10SM CLR 35/09 A2997 RMK AO2
KVCV 092350Z AUTO 17019G28KT 9SM CLR 35/09 A2997 RMK AO2
KVCV 092330Z AUTO 16018G25KT 10SM CLR 36/09 A2997 RMK AO2
KVCV 092310Z AUTO 15021G26KT 10SM CLR 36/09 A2997 RMK AO2
KVCV 092250Z AUTO 17021KT 10SM CLR 36/10 A2997 RMK AO2
KVCV 092230Z AUTO 15019G26KT 10SM CLR 36/09 A2999 RMK AO2
KVCV 092210Z AUTO 17020KT 10SM CLR 36/09 A2999 RMK AO2
KVCV 092150Z AUTO 15022KT 10SM CLR 36/09 A2999 RMK AO2
KVCV 092130Z AUTO 14018G23KT 10SM CLR 36/10 A3001 RMK AO2
KVCV 092110Z AUTO 16016G22KT 10SM CLR 35/11 A3002 RMK AO2
KVCV 092050Z AUTO 15015G22KT 10SM CLR 35/11 A3003 RMK AO2
KVCV 092030Z AUTO 14015KT 10SM CLR 35/12 A3003 RMK AO2
KVCV 092010Z AUTO 14010G16KT 10SM CLR 34/11 A3004 RMK AO2
KVCV 091950Z AUTO 15012G18KT 10SM CLR 33/11 A3005 RMK AO2
KVCV 091930Z AUTO 12013KT 10SM CLR 34/11 A3006 RMK AO2
KVCV 091910Z AUTO 14010G16KT 10SM CLR 34/11 A3006 RMK AO2
KVCV 091850Z AUTO 13011G17KT 10SM CLR 33/11 A3007 RMK AO2
KVCV 091830Z AUTO 14012KT 10SM CLR 33/11 A3007 RMK AO2
KVCV 091810Z AUTO 17011KT 10SM CLR 33/10 A3008 RMK AO2
KVCV 091750Z AUTO 14008KT 10SM CLR 32/10 A3008 RMK AO2
KVCV 091730Z AUTO 14009KT 10SM CLR 31/09 A3009 RMK AO2
KVCV 091710Z AUTO 11007KT 10SM CLR 31/09 A3009 RMK AO2
KVCV 091650Z AUTO 12007G13KT 10SM CLR 30/08 A3009 RMK AO2
KVCV 091630Z AUTO 19006KT 10SM CLR 29/08 A3009 RMK AO2
KVCV 091610Z AUTO 18007KT 10SM CLR 29/08 A3009 RMK AO2
KVCV 091550Z AUTO 18007KT 10SM CLR 28/08 A3008 RMK AO2
KVCV 091530Z AUTO 18007KT 10SM CLR 27/08 A3008 RMK AO2
KVCV 091510Z AUTO 15005KT 10SM CLR 27/08 A3008 RMK AO2
KVCV 091450Z AUTO 13005KT 10SM CLR 27/08 A3007 RMK AO2
KVCV 091430Z AUTO 12003KT 10SM CLR 26/08 A3007 RMK AO2
KVCV 091410Z AUTO 14004KT 9SM CLR 25/08 A3007 RMK AO2
KVCV 091350Z AUTO 00000KT 10SM CLR 25/08 A3007 RMK AO2
KVCV 091330Z AUTO 16003KT 10SM CLR 25/08 A3006 RMK AO2
KVCV 091310Z AUTO 00000KT 10SM CLR 24/08 A3005 RMK AO2
KVCV 091250Z AUTO 17004KT 10SM CLR 25/08 A3005 RMK AO2
KVCV 091235Z AUTO 18005KT 10SM CLR 25/08 A3005 RMK AO2
KVCV 091215Z AUTO 00000KT 10SM CLR 25/07 A3004 RMK AO2
KVCV 091155Z AUTO 18003KT 10SM CLR 25/07 A3004 RMK AO2
KVCV 091135Z AUTO 17004KT 10SM CLR 26/07 A3004 RMK AO2
KVCV 091110Z AUTO 00000KT 10SM CLR 26/06 A3004 RMK AO2
KVCV 091050Z AUTO 00000KT 10SM CLR 26/05 A3004 RMK AO2
KVCV 091035Z AUTO 23004KT 10SM CLR 26/06 A3004 RMK AO2
KVCV 091015Z AUTO 20004KT 10SM CLR 27/06 A3004 RMK AO2
KVCV 090955Z AUTO 18004KT 8SM FEW120 27/07 A3004 RMK AO2
KVCV 090935Z AUTO 18005KT 9SM CLR 27/07 A3004 RMK AO2
KVCV 090915Z AUTO 19005KT 10SM SCT120 27/07 A3004 RMK AO2
KVCV 090855Z AUTO 20004KT 10SM BKN120 27/08 A3004 RMK AO2
KVCV 090835Z AUTO 19004KT 10SM FEW120 27/09 A3004 RMK AO2
KVCV 090815Z AUTO 00000KT 9SM CLR 27/09 A3004 RMK AO2
KVCV 090755Z AUTO 20005KT 9SM CLR 28/09 A3005 RMK AO2
KVCV 090735Z AUTO 21006KT 10SM CLR 28/09 A3006 RMK AO2
KVCV 090715Z AUTO 19007KT 10SM CLR 28/09 A3006 RMK AO2
KVCV 090655Z AUTO 18007KT 10SM FEW120 28/09 A3006 RMK AO2
KVCV 090635Z AUTO 17010KT 9SM CLR 28/09 A3006 RMK AO2
KVCV 090615Z AUTO 18008KT 10SM CLR 28/10 A3006 RMK AO2
KVCV 090555Z AUTO 18007KT 10SM CLR 28/11 A3006 RMK AO2
KVCV 090535Z AUTO 18007KT 10SM CLR 28/11 A3006 RMK AO2
KVCV 090515Z AUTO 16012KT 10SM FEW110 29/11 A3006 RMK AO2
KVCV 090455Z AUTO 17012KT 10SM CLR 29/11 A3005 RMK AO2
KVCV 090435Z AUTO 17013KT 10SM CLR 29/12 A3005 RMK AO2
KVCV 090415Z AUTO 17011KT 10SM CLR 30/12 A3005 RMK AO2
KVCV 090355Z AUTO 17013KT 10SM CLR 30/12 A3003 RMK AO2
KVCV 090335Z AUTO 19010G19KT 10SM CLR 31/12 A3002 RMK AO2
KVCV 090315Z AUTO 17018KT 10SM CLR 31/12 A3001 RMK AO2
KVCV 090255Z AUTO 17019KT 10SM CLR 32/11 A3000 RMK AO2